createdAt,value
2022-09-14T00:01:21.286Z,17.11
2022-09-14T00:06:20.524Z,17.38
2022-09-14T00:11:25.866Z,17.46
2022-09-14T00:16:34.467Z,17.59
2022-09-14T00:21:42.883Z,17.54
2022-09-14T00:26:46.258Z,17.38
2022-09-14T00:31:51.276Z,17.15
2022-09-14T00:36:54.346Z,16.79
2022-09-14T00:41:57.582Z,16.64
2022-09-14T00:47:03.923Z,16.62
2022-09-14T00:52:11.476Z,16.62
2022-09-14T00:57:15.564Z,16.48
2022-09-14T01:02:22.203Z,16.43
2022-09-14T01:07:38.710Z,16.52
2022-09-14T01:13:04.067Z,16.54
2022-09-14T01:18:15.498Z,16.54
2022-09-14T01:23:25.535Z,16.61
2022-09-14T01:28:36.702Z,16.58
2022-09-14T01:33:46.520Z,16.60
2022-09-14T01:38:53.259Z,16.62
2022-09-14T01:44:00.919Z,16.60
2022-09-14T01:49:14.907Z,16.53
2022-09-14T01:54:22.865Z,16.54
2022-09-14T01:59:32.299Z,16.59
2022-09-14T02:04:42.398Z,16.51
2022-09-14T02:09:46.365Z,16.38
2022-09-14T02:14:53.192Z,16.16
2022-09-14T02:20:00.087Z,16.17
2022-09-14T02:25:03.794Z,16.20
2022-09-14T02:30:10.118Z,16.23
2022-09-14T02:35:21.093Z,16.07
2022-09-14T02:40:33.571Z,16.06
2022-09-14T02:45:47.473Z,16.12
2022-09-14T02:50:57.427Z,16.07
2022-09-14T02:56:03.495Z,15.90
2022-09-14T03:01:09.414Z,15.89
2022-09-14T03:06:12.527Z,16.03
2022-09-14T03:11:15.779Z,16.03
2022-09-14T03:16:20.195Z,16.08
2022-09-14T03:21:23.195Z,16.14
2022-09-14T03:26:29.279Z,16.16
2022-09-14T03:31:34.816Z,16.15
2022-09-14T03:36:37.809Z,16.13
2022-09-14T03:41:41.102Z,16.03
2022-09-14T03:46:45.581Z,16.09
2022-09-14T03:51:48.658Z,16.18
2022-09-14T03:56:54.086Z,16.23
2022-09-14T04:01:58.457Z,16.29
2022-09-14T04:07:01.517Z,16.33
2022-09-14T04:12:04.530Z,16.21
2022-09-14T04:17:10.721Z,16.08
2022-09-14T04:22:13.724Z,16.02
2022-09-14T04:27:16.802Z,15.94
2022-09-14T04:32:21.160Z,15.89
2022-09-14T04:37:24.613Z,15.89
2022-09-14T04:42:27.634Z,15.87
2022-09-14T04:47:31.930Z,15.85
2022-09-14T04:52:35.126Z,15.85
2022-09-14T04:57:38.038Z,15.63
2022-09-14T05:02:43.631Z,15.52
2022-09-14T05:07:46.817Z,15.51
2022-09-14T05:12:49.920Z,15.48
2022-09-14T05:17:54.238Z,15.56
2022-09-14T05:22:57.185Z,15.66
2022-09-14T05:28:01.321Z,15.74
2022-09-14T05:33:05.840Z,15.78
2022-09-14T05:38:08.826Z,15.78
2022-09-14T05:43:11.738Z,15.76
2022-09-14T05:48:16.668Z,15.82
2022-09-14T05:53:19.695Z,15.77
2022-09-14T05:58:22.917Z,15.81
2022-09-14T06:03:27.510Z,15.85
2022-09-14T06:08:30.579Z,15.70
2022-09-14T06:13:34.018Z,15.54
2022-09-14T06:18:39.839Z,15.40
2022-09-14T06:23:43.195Z,15.48
2022-09-14T06:28:46.429Z,15.57
2022-09-14T06:33:51.812Z,15.46
2022-09-14T06:38:54.933Z,15.52
2022-09-14T06:43:58.890Z,15.34
2022-09-14T06:49:05.469Z,15.26
2022-09-14T06:54:12.060Z,15.34
2022-09-14T06:59:16.725Z,15.37
2022-09-14T07:04:21.660Z,15.47
2022-09-14T07:09:25.653Z,15.55
2022-09-14T07:14:32.211Z,15.48
2022-09-14T07:19:36.859Z,15.49
2022-09-14T07:24:42.276Z,15.42
2022-09-14T07:29:45.583Z,15.32
2022-09-14T07:34:49.950Z,15.41
2022-09-14T07:39:52.968Z,15.54
2022-09-14T07:44:56.064Z,15.41
2022-09-14T07:50:00.516Z,15.49
2022-09-14T07:55:03.673Z,15.58
2022-09-14T08:00:08.687Z,15.61
2022-09-14T08:05:16.555Z,15.69
2022-09-14T08:10:19.456Z,15.79
2022-09-14T08:15:27.798Z,15.66
2022-09-14T08:20:32.960Z,15.57
2022-09-14T08:25:36.100Z,15.64
2022-09-14T08:30:39.010Z,15.66
2022-09-14T08:36:01.621Z,15.59
2022-09-14T08:41:12.651Z,15.53
2022-09-14T08:46:23.652Z,15.68
2022-09-14T08:51:28.965Z,15.82
2022-09-14T08:56:34.400Z,15.92
2022-09-14T09:01:45.068Z,15.86
2022-09-14T09:06:57.141Z,15.96
2022-09-14T09:12:00.788Z,15.97
2022-09-14T09:17:11.041Z,16.18
2022-09-14T09:22:21.707Z,16.31
2022-09-14T09:27:26.388Z,16.34
2022-09-14T09:32:29.606Z,16.42
2022-09-14T09:38:03.297Z,16.54
2022-09-14T09:43:12.437Z,16.58
2022-09-14T09:48:16.293Z,16.63
2022-09-14T09:53:23.877Z,16.70
2022-09-14T09:58:33.164Z,16.61
2022-09-14T10:03:40.996Z,16.62
2022-09-14T10:08:47.706Z,16.66
2022-09-14T10:13:50.674Z,16.56
2022-09-14T10:18:55.056Z,16.69
2022-09-14T10:24:17.006Z,16.82
2022-09-14T10:29:31.929Z,16.83
2022-09-14T10:34:35.513Z,16.83
2022-09-14T10:39:49.102Z,16.83
2022-09-14T10:45:06.271Z,16.73
2022-09-14T10:50:26.445Z,16.61
2022-09-14T10:55:40.127Z,16.63
2022-09-14T11:00:55.684Z,16.72
2022-09-14T11:06:10.726Z,16.71
2022-09-14T11:11:41.490Z,16.81
2022-09-14T11:17:02.914Z,16.97
2022-09-14T11:22:16.199Z,16.97
2022-09-14T11:27:27.098Z,16.97
2022-09-14T11:32:34.055Z,17.01
2022-09-14T11:37:43.183Z,17.02
2022-09-14T11:42:57.521Z,16.98
2022-09-14T11:48:40.777Z,16.89
2022-09-14T11:53:34.596Z,16.97
2022-09-14T11:58:39.028Z,17.12
2022-09-14T12:04:10.684Z,17.19
2022-09-14T12:09:50.461Z,17.48
2022-09-14T12:15:00.632Z,17.78
2022-09-14T12:20:36.381Z,17.96
2022-09-14T12:25:41.238Z,18.13
2022-09-14T12:31:23.715Z,18.27
2022-09-14T12:37:11.298Z,18.48
2022-09-14T12:42:32.242Z,18.52
2022-09-14T12:47:59.307Z,18.73
2022-09-14T12:53:22.646Z,19.06
2022-09-14T12:58:43.293Z,19.31
2022-09-14T13:03:51.999Z,19.38
2022-09-14T13:08:58.092Z,19.45
2022-09-14T13:14:04.069Z,19.37
2022-09-14T13:19:20.169Z,19.54
2022-09-14T13:24:31.390Z,19.71
2022-09-14T13:29:36.996Z,19.76
2022-09-14T13:34:41.028Z,19.89
2022-09-14T13:39:51.963Z,19.89
2022-09-14T13:44:57.170Z,20.00
2022-09-14T13:50:00.618Z,20.12
2022-09-14T13:55:18.988Z,20.20
2022-09-14T14:00:24.358Z,20.42
2022-09-14T14:05:29.267Z,20.69
2022-09-14T14:10:34.693Z,20.89
2022-09-14T14:15:43.916Z,20.81
2022-09-14T14:20:47.293Z,20.90
2022-09-14T14:25:54.323Z,20.93
2022-09-14T14:31:07.868Z,21.23
2022-09-14T14:36:11.725Z,21.26
2022-09-14T14:41:17.484Z,21.33
2022-09-14T14:46:21.982Z,21.35
2022-09-14T14:51:25.312Z,21.50
2022-09-14T14:56:28.596Z,21.70
2022-09-14T15:01:33.476Z,21.58
2022-09-14T15:12:50.770Z,21.80
2022-09-14T15:17:55.586Z,22.05
2022-09-14T15:22:58.907Z,22.38
2022-09-14T15:28:02.338Z,22.55
2022-09-14T15:33:06.960Z,22.36
2022-09-14T15:38:13.174Z,21.92
2022-09-14T15:43:16.144Z,21.79
2022-09-14T15:48:20.695Z,21.76
2022-09-14T15:53:23.830Z,21.76
2022-09-14T15:58:27.441Z,21.73
2022-09-14T16:03:31.859Z,21.74
2022-09-14T16:08:36.793Z,21.69
2022-09-14T16:13:42.369Z,21.68
2022-09-14T16:18:47.850Z,21.67
2022-09-14T16:23:53.229Z,21.70
2022-09-14T16:28:57.185Z,21.73
2022-09-14T16:34:03.326Z,21.67
2022-09-14T16:39:10.252Z,21.60
2022-09-14T16:44:15.358Z,21.51
2022-09-14T16:49:23.634Z,21.44
2022-09-14T16:54:31.801Z,21.35
2022-09-14T16:59:34.965Z,21.32
2022-09-14T17:04:39.391Z,21.21
2022-09-14T17:09:42.550Z,21.03
2022-09-14T17:14:46.797Z,20.78
2022-09-14T17:19:51.262Z,20.67
2022-09-14T17:24:54.716Z,20.59
2022-09-14T17:29:57.755Z,20.40
2022-09-14T17:35:03.204Z,20.18
2022-09-14T17:40:09.323Z,20.02
2022-09-14T17:45:12.639Z,19.81
2022-09-14T17:50:17.104Z,19.64
2022-09-14T17:55:20.165Z,19.44
2022-09-14T18:00:23.325Z,19.28
2022-09-14T18:05:28.249Z,19.00
2022-09-14T18:10:31.542Z,18.86
2022-09-14T18:15:38.302Z,18.71
2022-09-14T18:20:44.900Z,18.62
2022-09-14T18:25:48.269Z,18.50
2022-09-14T18:30:52.040Z,18.37
2022-09-14T18:35:57.003Z,18.22
2022-09-14T18:41:05.064Z,18.10
2022-09-14T18:46:09.182Z,17.99
2022-09-14T18:51:15.421Z,17.91
2022-09-14T18:56:19.197Z,17.76
2022-09-14T19:01:22.543Z,17.69
2022-09-14T19:06:32.041Z,17.63
2022-09-14T19:11:36.318Z,17.56
2022-09-14T19:16:43.157Z,17.47
2022-09-14T19:21:47.909Z,17.42
2022-09-14T19:26:52.853Z,17.35
2022-09-14T19:31:56.727Z,17.31
2022-09-14T19:37:01.100Z,17.28
2022-09-14T19:42:04.931Z,17.23
2022-09-14T19:47:08.102Z,17.16
2022-09-14T19:52:12.640Z,17.12
2022-09-14T19:57:15.697Z,17.06
2022-09-14T20:02:18.840Z,17.02
2022-09-14T20:07:23.685Z,17.01
2022-09-14T20:12:26.786Z,17.01
2022-09-14T20:17:29.992Z,17.01
2022-09-14T20:22:34.401Z,16.97
2022-09-14T20:27:39.672Z,16.89
2022-09-14T20:32:42.958Z,16.83
2022-09-14T20:37:47.610Z,16.76
2022-09-14T20:42:50.845Z,16.66
2022-09-14T20:47:53.815Z,16.63
2022-09-14T20:52:58.210Z,16.55
2022-09-14T20:58:01.241Z,16.53
2022-09-14T21:03:04.364Z,16.42
2022-09-14T21:08:09.065Z,16.40
2022-09-14T21:13:12.244Z,16.30
2022-09-14T21:18:19.969Z,16.23
2022-09-14T21:23:25.338Z,16.16
2022-09-14T21:28:28.873Z,16.14
2022-09-14T21:33:33.580Z,16.16
2022-09-14T21:38:41.040Z,16.15
2022-09-14T21:43:44.248Z,16.16
2022-09-14T21:48:47.654Z,16.05
2022-09-14T21:53:54.426Z,15.95
2022-09-14T21:58:58.786Z,15.87
2022-09-14T22:04:02.271Z,15.77
2022-09-14T22:09:07.104Z,15.66
2022-09-14T22:14:13.248Z,15.56
2022-09-14T22:19:19.433Z,15.46
2022-09-14T22:24:25.780Z,15.40
2022-09-14T22:29:30.721Z,15.31
2022-09-14T22:34:35.713Z,15.25
2022-09-14T22:39:40.058Z,15.21
2022-09-14T22:44:43.320Z,15.17
2022-09-14T22:49:46.710Z,15.19
2022-09-14T22:54:51.052Z,15.20
2022-09-14T22:59:54.264Z,15.26
2022-09-14T23:04:57.309Z,15.31
2022-09-14T23:10:01.629Z,15.40
2022-09-14T23:15:05.148Z,15.48
2022-09-14T23:20:09.532Z,15.58
2022-09-14T23:25:14.051Z,15.67
2022-09-14T23:30:17.031Z,15.70
2022-09-14T23:35:21.033Z,15.80
2022-09-14T23:40:25.919Z,15.88
2022-09-14T23:45:29.115Z,15.95
2022-09-14T23:50:32.192Z,15.92
2022-09-14T23:55:36.947Z,15.80
